Time,TemperatureF,DewpointF,PressureIn,WindDirection,WindDirectionDegrees,WindSpeedMPH,WindSpeedGustMPH,Humidity,HourlyPrecipIn,Conditions,Clouds,dailyrainin,SolarRadiationWatts/m^2,SoftwareType,DateUTC
2013-10-06 00:02:00,36.0,9.0,-100.00,ENE,78,4.0,6.0,32,0.00,,,0.00,0.000000,,2013-10-06 07:02:00,
2013-10-06 00:11:00,36.0,9.0,-100.00,ENE,78,4.0,6.0,32,0.00,,,0.00,0.000000,,2013-10-06 07:11:00,
2013-10-06 00:42:00,39.0,9.0,-100.00,ENE,60,6.0,10.0,28,0.00,,,0.00,0.000000,,2013-10-06 07:42:00,
2013-10-06 00:52:00,39.0,9.0,-100.00,ENE,60,6.0,10.0,28,0.00,,,0.00,0.000000,,2013-10-06 07:52:00,
2013-10-06 01:02:00,39.0,9.0,-100.00,ENE,60,6.0,10.0,28,0.00,,,0.00,0.000000,,2013-10-06 08:02:00,
2013-10-06 01:11:00,39.0,9.0,-100.00,ENE,60,6.0,10.0,28,0.00,,,0.00,0.000000,,2013-10-06 08:11:00,
2013-10-06 01:42:00,40.0,4.0,-100.00,ENE,59,5.0,10.0,22,0.00,,,0.00,0.000000,,2013-10-06 08:42:00,
2013-10-06 01:53:00,40.0,4.0,-100.00,ENE,59,5.0,10.0,22,0.00,,,0.00,0.000000,,2013-10-06 08:53:00,
2013-10-06 02:01:00,40.0,4.0,-100.00,ENE,59,5.0,10.0,22,0.00,,,0.00,0.000000,,2013-10-06 09:01:00,
2013-10-06 02:11:00,40.0,4.0,-100.00,ENE,59,5.0,10.0,22,0.00,,,0.00,0.000000,,2013-10-06 09:11:00,
2013-10-06 02:12:00,41.0,0.0,-100.00,ENE,71,7.0,10.0,17,0.00,,,0.00,0.000000,,2013-10-06 09:12:00,
2013-10-06 02:53:00,41.0,0.0,-100.00,ENE,71,7.0,10.0,17,0.00,,,0.00,0.000000,,2013-10-06 09:53:00,
2013-10-06 03:03:00,41.0,0.0,-100.00,ENE,71,7.0,10.0,17,0.00,,,0.00,0.000000,,2013-10-06 10:03:00,
2013-10-06 09:12:00,50.0,13.0,-100.00,ENE,73,3.0,6.0,22,-99.99,,,0.00,168.000000,,2013-10-06 16:12:00,
2013-10-06 09:53:00,50.0,13.0,-100.00,ENE,73,3.0,6.0,22,-99.99,,,0.00,168.000000,,2013-10-06 16:53:00,
2013-10-06 10:02:00,50.0,13.0,-100.00,ENE,73,3.0,6.0,22,-99.99,,,0.00,168.000000,,2013-10-06 17:02:00,
2013-10-06 11:43:00,60.0,9.0,-100.00,WSW,240,4.0,7.0,13,-99.99,,,0.00,696.000000,,2013-10-06 18:43:00,
2013-10-06 11:52:00,60.0,9.0,-100.00,WSW,240,4.0,7.0,13,-99.99,,,0.00,696.000000,,2013-10-06 18:52:00,
2013-10-06 12:01:00,60.0,9.0,-100.00,WSW,240,4.0,7.0,13,-99.99,,,0.00,696.000000,,2013-10-06 19:01:00,
2013-10-06 12:42:00,61.0,16.0,-100.00,SW,232,5.0,8.0,17,-99.99,,,0.00,790.000000,,2013-10-06 19:42:00,
2013-10-06 12:53:00,61.0,16.0,-100.00,SW,232,5.0,8.0,17,-99.99,,,0.00,790.000000,,2013-10-06 19:53:00,
2013-10-06 13:02:00,61.0,16.0,-100.00,SW,232,5.0,8.0,17,-99.99,,,0.00,790.000000,,2013-10-06 20:02:00,
2013-10-06 13:11:00,61.0,16.0,-100.00,SW,232,5.0,8.0,17,-99.99,,,0.00,790.000000,,2013-10-06 20:11:00,
2013-10-06 13:42:00,62.0,12.0,-100.00,SW,228,6.0,10.0,14,0.00,,,-99.99,820.000000,,2013-10-06 20:42:00,
2013-10-06 13:52:00,62.0,12.0,-100.00,SW,228,6.0,10.0,14,0.00,,,-99.99,820.000000,,2013-10-06 20:52:00,
2013-10-06 14:01:00,62.0,12.0,-100.00,SW,228,6.0,10.0,14,0.00,,,-99.99,820.000000,,2013-10-06 21:01:00,
2013-10-06 14:11:00,62.0,12.0,-100.00,SW,228,6.0,10.0,14,0.00,,,-99.99,820.000000,,2013-10-06 21:11:00,
2013-10-06 14:12:00,64.0,12.0,-100.00,SW,234,6.0,14.0,13,0.00,,,0.00,784.000000,,2013-10-06 21:12:00,
2013-10-06 14:44:00,64.0,12.0,-100.00,SW,234,6.0,14.0,13,0.00,,,0.00,784.000000,,2013-10-06 21:44:00,
2013-10-06 14:54:00,64.0,12.0,-100.00,SW,234,6.0,14.0,13,0.00,,,0.00,784.000000,,2013-10-06 21:54:00,
2013-10-06 15:03:00,64.0,12.0,-100.00,SW,234,6.0,14.0,13,0.00,,,0.00,784.000000,,2013-10-06 22:03:00,
2013-10-06 15:12:00,65.0,13.0,-100.00,SW,234,6.0,12.0,13,0.00,,,0.00,683.000000,,2013-10-06 22:12:00,
2013-10-06 15:43:00,65.0,13.0,-100.00,SW,234,6.0,12.0,13,0.00,,,0.00,683.000000,,2013-10-06 22:43:00,
2013-10-06 15:53:00,65.0,13.0,-100.00,SW,234,6.0,12.0,13,0.00,,,0.00,683.000000,,2013-10-06 22:53:00,
2013-10-06 16:03:00,65.0,13.0,-100.00,SW,234,6.0,12.0,13,0.00,,,0.00,683.000000,,2013-10-06 23:03:00,
2013-10-06 16:12:00,66.0,14.0,-100.00,SSW,210,4.0,13.0,13,0.00,,,0.00,530.000000,,2013-10-06 23:12:00,
2013-10-06 16:42:00,66.0,14.0,-100.00,SSW,210,4.0,13.0,13,0.00,,,0.00,530.000000,,2013-10-06 23:42:00,
2013-10-06 16:53:00,66.0,14.0,-100.00,SSW,210,4.0,13.0,13,0.00,,,0.00,530.000000,,2013-10-06 23:53:00,
2013-10-06 17:02:00,66.0,14.0,-100.00,SSW,210,4.0,13.0,13,0.00,,,0.00,530.000000,,2013-10-07 00:02:00,
2013-10-06 17:42:00,65.0,13.0,-100.00,West,263,3.0,10.0,13,0.00,,,0.00,335.000000,,2013-10-07 00:42:00,
2013-10-06 17:52:00,65.0,13.0,-100.00,West,263,3.0,10.0,13,0.00,,,0.00,335.000000,,2013-10-07 00:52:00,
2013-10-06 18:02:00,65.0,13.0,-100.00,West,263,3.0,10.0,13,0.00,,,0.00,335.000000,,2013-10-07 01:02:00,
2013-10-06 18:11:00,65.0,13.0,-100.00,West,263,3.0,10.0,13,0.00,,,0.00,335.000000,,2013-10-07 01:11:00,
2013-10-06 18:42:00,56.0,16.0,-100.00,East,83,4.0,8.0,20,0.00,,,0.00,103.000000,,2013-10-07 01:42:00,
2013-10-06 18:53:00,56.0,16.0,-100.00,East,83,4.0,8.0,20,0.00,,,0.00,103.000000,,2013-10-07 01:53:00,
2013-10-06 19:02:00,56.0,16.0,-100.00,East,83,4.0,8.0,20,0.00,,,0.00,103.000000,,2013-10-07 02:02:00,
2013-10-06 19:11:00,56.0,16.0,-100.00,East,83,4.0,8.0,20,0.00,,,0.00,103.000000,,2013-10-07 02:11:00,
2013-10-06 19:12:00,50.0,15.0,-100.00,East,82,4.0,6.0,24,0.00,,,0.00,0.000000,,2013-10-07 02:12:00,
2013-10-06 19:42:00,50.0,15.0,-100.00,East,82,4.0,6.0,24,0.00,,,0.00,0.000000,,2013-10-07 02:42:00,
2013-10-06 19:53:00,50.0,15.0,-100.00,East,82,4.0,6.0,24,0.00,,,0.00,0.000000,,2013-10-07 02:53:00,
2013-10-06 20:02:00,50.0,15.0,-100.00,East,82,4.0,6.0,24,0.00,,,0.00,0.000000,,2013-10-07 03:02:00,
2013-10-06 20:12:00,49.0,16.0,-100.00,East,84,4.0,6.0,26,0.00,,,0.00,0.000000,,2013-10-07 03:12:00,
2013-10-06 20:44:00,49.0,16.0,-100.00,East,84,4.0,6.0,26,0.00,,,0.00,0.000000,,2013-10-07 03:44:00,
2013-10-06 20:54:00,49.0,16.0,-100.00,East,84,4.0,6.0,26,0.00,,,0.00,0.000000,,2013-10-07 03:54:00,
2013-10-06 21:04:00,49.0,16.0,-100.00,East,84,4.0,6.0,26,0.00,,,0.00,0.000000,,2013-10-07 04:04:00,
2013-10-06 21:12:00,48.0,16.0,-100.00,ESE,102,3.0,6.0,28,0.00,,,0.00,0.000000,,2013-10-07 04:12:00,
2013-10-06 21:44:00,48.0,16.0,-100.00,ESE,102,3.0,6.0,28,0.00,,,0.00,0.000000,,2013-10-07 04:44:00,
2013-10-06 21:53:00,48.0,16.0,-100.00,ESE,102,3.0,6.0,28,0.00,,,0.00,0.000000,,2013-10-07 04:53:00,
2013-10-06 22:03:00,48.0,16.0,-100.00,ESE,102,3.0,6.0,28,0.00,,,0.00,0.000000,,2013-10-07 05:03:00,
2013-10-06 22:12:00,49.0,15.0,-100.00,East,97,4.0,7.0,25,0.00,,,0.00,0.000000,,2013-10-07 05:12:00,
2013-10-06 22:43:00,49.0,15.0,-100.00,East,97,4.0,7.0,25,0.00,,,0.00,0.000000,,2013-10-07 05:43:00,
2013-10-06 22:52:00,49.0,15.0,-100.00,East,97,4.0,7.0,25,0.00,,,0.00,0.000000,,2013-10-07 05:52:00,
2013-10-06 23:03:00,49.0,15.0,-100.00,East,97,4.0,7.0,25,0.00,,,0.00,0.000000,,2013-10-07 06:03:00,
2013-10-06 23:12:00,51.0,12.0,-100.00,South,169,3.0,8.0,21,0.00,,,0.00,0.000000,,2013-10-07 06:12:00,
2013-10-06 23:52:00,51.0,12.0,-100.00,South,169,3.0,8.0,21,0.00,,,0.00,0.000000,,2013-10-07 06:52:00,